Terminal Aerodrome Forecast
Issued by NWS Wichita, KS

Home | Current Version | Previous Version | Graphics & Text | Print | Product List | Glossary On
Versions: 1 2 3 4 5 6 7 8 9 10 11 12 13 14 15 16 17 18 19 20 21 22
000
FTUS43 KICT 261554 AAB
TAFICT
TAF AMD
KICT 261554Z 2616/2712 09007KT P6SM SCT025 BKN040
      TEMPO 2616/2618 BKN025
     FM270000 12005KT P6SM SCT250=

USA.gov is the U.S. government's official web portal to all federal, state and local government web resources and services.